createdAt,value
2017-07-12T00:00:27.932Z,17.80
2017-07-12T00:02:55.447Z,17.80
2017-07-12T00:05:22.983Z,17.80
2017-07-12T00:07:51.283Z,17.90
2017-07-12T00:10:18.790Z,17.90
2017-07-12T00:12:46.378Z,17.90
2017-07-12T00:15:14.693Z,18.00
2017-07-12T00:17:42.184Z,18.00
2017-07-12T00:20:09.702Z,18.00
2017-07-12T00:22:37.251Z,18.00
2017-07-12T00:25:04.744Z,18.10
2017-07-12T00:27:32.382Z,18.10
2017-07-12T00:29:59.899Z,18.10
2017-07-12T00:32:27.395Z,18.10
2017-07-12T00:34:55.625Z,18.10
2017-07-12T00:37:23.107Z,18.10
2017-07-12T00:39:51.354Z,18.20
2017-07-12T00:42:18.857Z,18.20
2017-07-12T00:44:46.346Z,18.20
2017-07-12T00:47:13.830Z,18.20
2017-07-12T00:49:41.335Z,18.10
2017-07-12T00:52:08.841Z,18.20
2017-07-12T00:54:36.329Z,18.00
2017-07-12T00:57:04.642Z,17.80
2017-07-12T00:59:32.111Z,17.80
2017-07-12T01:01:59.609Z,17.70
2017-07-12T01:04:27.106Z,17.60
2017-07-12T01:06:54.644Z,17.60
2017-07-12T01:09:22.947Z,17.60
2017-07-12T01:11:50.502Z,17.50
2017-07-12T01:14:18.072Z,17.50
2017-07-12T01:16:45.592Z,17.40
2017-07-12T01:19:13.879Z,17.40
2017-07-12T01:21:42.118Z,17.40
2017-07-12T01:24:09.707Z,17.40
2017-07-12T01:26:37.984Z,17.40
2017-07-12T01:29:05.461Z,17.40
2017-07-12T01:31:32.941Z,17.50
2017-07-12T01:34:00.495Z,17.40
2017-07-12T01:36:27.980Z,17.50
2017-07-12T01:38:55.597Z,17.40
2017-07-12T01:41:23.137Z,17.40
2017-07-12T01:43:51.429Z,17.30
2017-07-12T01:46:19.736Z,17.30
2017-07-12T01:48:47.320Z,17.30
2017-07-12T01:51:14.799Z,17.30
2017-07-12T01:53:43.215Z,17.30
2017-07-12T01:56:10.752Z,17.20
2017-07-12T01:58:39.028Z,17.20
2017-07-12T02:01:07.308Z,17.20
2017-07-12T02:03:35.603Z,17.20
2017-07-12T02:06:03.164Z,17.10
2017-07-12T02:08:30.680Z,17.10
2017-07-12T02:10:58.166Z,17.10
2017-07-12T02:13:26.478Z,17.10
2017-07-12T02:15:53.976Z,17.10
2017-07-12T02:18:21.470Z,17.10
2017-07-12T02:20:49.838Z,17.00
2017-07-12T02:23:17.418Z,17.00
2017-07-12T02:25:44.945Z,17.00
2017-07-12T02:28:12.440Z,16.90
2017-07-12T02:30:40.099Z,16.90
2017-07-12T02:33:07.609Z,16.90
2017-07-12T02:35:35.114Z,17.00
2017-07-12T02:38:02.608Z,17.00
2017-07-12T02:40:30.244Z,17.10
2017-07-12T02:42:57.720Z,17.10
2017-07-12T02:45:25.218Z,17.20
2017-07-12T02:47:52.744Z,17.20
2017-07-12T02:50:20.218Z,17.20
2017-07-12T02:52:47.722Z,17.20
2017-07-12T02:55:15.239Z,17.20
2017-07-12T02:57:42.734Z,17.10
2017-07-12T03:00:10.993Z,17.10
2017-07-12T03:02:38.519Z,17.10
2017-07-12T03:05:06.013Z,17.10
2017-07-12T03:07:33.500Z,17.10
2017-07-12T03:10:01.084Z,17.10
2017-07-12T03:12:28.591Z,17.20
2017-07-12T03:14:56.096Z,17.10
2017-07-12T03:17:23.616Z,17.10
2017-07-12T03:19:51.858Z,17.00
2017-07-12T03:22:19.356Z,17.00
2017-07-12T03:24:47.634Z,17.00
2017-07-12T03:27:15.874Z,17.00
2017-07-12T03:29:43.374Z,16.90
2017-07-12T03:32:10.876Z,16.90
2017-07-12T03:34:38.424Z,16.90
2017-07-12T03:37:05.936Z,16.90
2017-07-12T03:39:46.300Z,16.90
2017-07-12T03:42:15.019Z,17.00
2017-07-12T03:44:42.521Z,16.90
2017-07-12T03:47:10.327Z,17.00
2017-07-12T03:49:37.904Z,17.10
2017-07-12T03:52:06.341Z,17.30
2017-07-12T03:54:33.867Z,17.40
2017-07-12T03:57:01.362Z,17.60
2017-07-12T03:59:28.861Z,17.70
2017-07-12T04:01:56.362Z,17.80
2017-07-12T04:04:23.869Z,17.90
2017-07-12T04:06:51.426Z,17.80
2017-07-12T04:09:19.426Z,17.90
2017-07-12T04:11:46.922Z,17.90
2017-07-12T04:14:14.532Z,18.10
2017-07-12T04:16:42.045Z,18.10
2017-07-12T04:19:09.540Z,18.10
2017-07-12T04:21:37.057Z,18.10
2017-07-12T04:24:05.376Z,18.10
2017-07-12T04:26:32.877Z,18.10
2017-07-12T04:29:00.358Z,18.10
2017-07-12T04:31:27.959Z,18.10
2017-07-12T04:33:55.465Z,18.20
2017-07-12T04:36:22.960Z,18.20
2017-07-12T04:38:50.542Z,18.20
2017-07-12T04:41:18.056Z,18.40
2017-07-12T04:43:45.637Z,18.40
2017-07-12T04:46:13.205Z,18.40
2017-07-12T04:48:40.713Z,18.50
2017-07-12T04:51:08.226Z,18.50
2017-07-12T04:53:35.745Z,18.60
2017-07-12T04:56:03.218Z,18.70
2017-07-12T04:58:32.433Z,18.80
2017-07-12T05:00:59.948Z,18.80
2017-07-12T05:03:27.522Z,18.90
2017-07-12T05:05:55.133Z,19.00
2017-07-12T05:08:22.644Z,19.20
2017-07-12T05:10:50.147Z,19.30
2017-07-12T05:13:17.645Z,19.30
2017-07-12T05:15:45.172Z,19.40
2017-07-12T05:18:12.723Z,19.50
2017-07-12T05:20:40.253Z,19.20
2017-07-12T05:23:08.528Z,19.30
2017-07-12T05:25:36.783Z,19.20
2017-07-12T05:28:04.335Z,19.20
2017-07-12T05:30:31.855Z,19.20
2017-07-12T05:32:59.385Z,19.30
2017-07-12T05:35:27.672Z,19.40
2017-07-12T05:37:56.000Z,19.30
2017-07-12T05:40:23.489Z,19.30
2017-07-12T05:42:50.959Z,19.30
2017-07-12T05:45:19.239Z,19.30
2017-07-12T05:47:47.523Z,19.30
2017-07-12T05:50:15.027Z,19.30
2017-07-12T05:52:42.566Z,19.40
2017-07-12T05:55:10.124Z,19.40
2017-07-12T05:57:37.661Z,19.40
2017-07-12T06:00:05.943Z,19.50
2017-07-12T06:02:33.563Z,19.40
2017-07-12T06:05:01.223Z,19.50
2017-07-12T06:07:28.734Z,19.50
2017-07-12T06:09:56.287Z,19.60
2017-07-12T06:12:23.775Z,19.60
2017-07-12T06:14:51.298Z,19.70
2017-07-12T06:17:18.861Z,19.80
2017-07-12T06:19:47.577Z,19.80
2017-07-12T06:22:15.108Z,19.80
2017-07-12T06:24:42.631Z,19.90
2017-07-12T06:27:10.224Z,19.90
2017-07-12T06:29:38.507Z,20.00
2017-07-12T06:32:06.016Z,20.00
2017-07-12T06:34:33.561Z,20.00
2017-07-12T06:37:01.068Z,20.10
2017-07-12T06:39:29.337Z,20.40
2017-07-12T06:41:57.614Z,20.70
2017-07-12T06:44:25.897Z,20.90
2017-07-12T06:46:54.152Z,21.10
2017-07-12T06:49:21.645Z,21.00
2017-07-12T06:51:49.163Z,20.90
2017-07-12T06:54:16.671Z,21.00
2017-07-12T06:56:44.173Z,21.10
2017-07-12T06:59:11.889Z,20.90
2017-07-12T07:01:39.391Z,20.90
2017-07-12T07:04:06.890Z,20.90
2017-07-12T07:06:35.167Z,21.20
2017-07-12T07:09:03.409Z,21.10
2017-07-12T07:11:30.917Z,21.20
2017-07-12T07:13:58.464Z,21.10
2017-07-12T07:16:26.712Z,20.90
2017-07-12T07:18:54.195Z,20.80
2017-07-12T07:21:22.484Z,21.00
2017-07-12T07:23:50.037Z,21.00
2017-07-12T07:26:18.312Z,21.30
2017-07-12T07:28:46.587Z,21.20
2017-07-12T07:31:14.849Z,21.10
2017-07-12T07:33:43.111Z,21.10
2017-07-12T07:36:10.647Z,21.10
2017-07-12T07:38:38.165Z,21.10
2017-07-12T07:41:06.415Z,20.90
2017-07-12T07:43:33.930Z,20.90
2017-07-12T07:46:01.459Z,20.80
2017-07-12T07:48:29.722Z,20.90
2017-07-12T07:50:58.027Z,21.20
2017-07-12T07:53:25.528Z,21.20
2017-07-12T07:55:53.017Z,21.30
2017-07-12T07:58:21.397Z,21.60
2017-07-12T08:00:49.697Z,21.60
2017-07-12T08:03:17.946Z,21.60
2017-07-12T08:05:45.472Z,21.70
2017-07-12T08:08:12.964Z,21.90
2017-07-12T08:10:40.478Z,21.90
2017-07-12T08:13:08.029Z,22.20
2017-07-12T08:15:35.539Z,22.00
2017-07-12T08:18:03.056Z,22.00
2017-07-12T08:20:30.584Z,22.30
2017-07-12T08:22:58.065Z,22.60
2017-07-12T08:25:25.621Z,22.60
2017-07-12T08:27:53.173Z,22.70
2017-07-12T08:30:20.719Z,23.10
2017-07-12T08:32:48.223Z,23.00
2017-07-12T08:35:15.796Z,23.00
2017-07-12T08:37:43.277Z,23.00
2017-07-12T08:40:11.589Z,23.30
2017-07-12T08:42:39.138Z,23.20
2017-07-12T08:45:06.629Z,23.70
2017-07-12T08:47:34.110Z,23.40
2017-07-12T08:50:01.713Z,23.30
2017-07-12T08:52:29.233Z,23.20
2017-07-12T08:54:56.719Z,23.20
2017-07-12T08:57:25.039Z,23.20
2017-07-12T08:59:52.524Z,23.20
2017-07-12T09:02:20.014Z,23.80
2017-07-12T09:04:48.302Z,24.60
2017-07-12T09:07:15.801Z,24.50
2017-07-12T09:09:43.305Z,24.10
2017-07-12T09:12:11.714Z,23.40
2017-07-12T09:14:39.236Z,23.40
2017-07-12T09:17:07.508Z,23.90
2017-07-12T09:19:35.085Z,23.90
2017-07-12T09:22:03.360Z,24.20
2017-07-12T09:34:21.765Z,24.30
2017-07-12T09:36:50.027Z,25.00
2017-07-12T09:39:17.526Z,25.00
2017-07-12T09:41:45.064Z,25.40
2017-07-12T09:44:13.351Z,25.60
2017-07-12T09:46:42.187Z,25.30
2017-07-12T09:49:09.701Z,25.30
2017-07-12T09:51:37.951Z,24.60
2017-07-12T09:54:05.437Z,24.60
2017-07-12T09:56:33.711Z,25.10
2017-07-12T09:59:01.977Z,25.30
2017-07-12T10:01:30.231Z,25.70
2017-07-12T10:03:57.754Z,25.70
2017-07-12T10:06:25.257Z,25.70
2017-07-12T10:08:52.883Z,25.50
2017-07-12T10:11:20.398Z,25.30
2017-07-12T10:13:48.663Z,24.50
2017-07-12T10:16:16.161Z,24.50
2017-07-12T10:18:43.696Z,24.50
2017-07-12T10:21:11.948Z,24.40
2017-07-12T10:23:39.439Z,24.30
2017-07-12T10:26:06.973Z,24.70
2017-07-12T10:28:34.573Z,25.30
2017-07-12T10:31:02.057Z,25.50
2017-07-12T10:33:30.008Z,25.10
2017-07-12T10:35:57.575Z,25.00
2017-07-12T10:38:25.086Z,25.30
2017-07-12T10:40:54.031Z,25.80
2017-07-12T10:43:21.580Z,25.80
2017-07-12T10:45:49.375Z,26.50
2017-07-12T10:48:16.890Z,27.00
2017-07-12T10:50:44.403Z,26.40
2017-07-12T10:53:11.910Z,26.60
2017-07-12T10:55:39.432Z,26.80
2017-07-12T10:58:06.934Z,26.10
2017-07-12T11:00:34.421Z,26.00
2017-07-12T11:03:01.932Z,26.10
2017-07-12T11:05:30.197Z,26.00
2017-07-12T11:07:57.733Z,26.00
2017-07-12T11:10:25.608Z,25.10
2017-07-12T11:12:53.130Z,24.80
2017-07-12T11:15:20.732Z,24.80
2017-07-12T11:17:48.436Z,24.60
2017-07-12T11:20:15.932Z,24.20
2017-07-12T11:22:43.454Z,24.00
2017-07-12T11:25:11.003Z,24.10
2017-07-12T11:27:38.526Z,24.00
2017-07-12T11:30:06.054Z,24.20
2017-07-12T11:32:33.583Z,24.30
2017-07-12T11:35:01.071Z,24.10
2017-07-12T11:37:28.661Z,23.90
2017-07-12T11:39:56.179Z,24.00
2017-07-12T11:42:23.680Z,24.10
2017-07-12T11:44:51.163Z,23.90
2017-07-12T11:47:18.713Z,23.80
2017-07-12T11:49:46.200Z,23.90
2017-07-12T11:52:13.702Z,23.70
2017-07-12T11:54:41.227Z,23.60
2017-07-12T11:57:08.768Z,23.50
2017-07-12T11:59:36.276Z,23.60
2017-07-12T12:02:03.762Z,23.60
2017-07-12T12:04:31.370Z,23.70
2017-07-12T12:06:58.870Z,23.70
2017-07-12T12:09:27.145Z,23.80
2017-07-12T12:11:54.633Z,23.70
2017-07-12T12:14:22.875Z,23.60
2017-07-12T12:16:50.403Z,23.60
2017-07-12T12:19:17.891Z,23.40
2017-07-12T12:21:45.390Z,23.20
2017-07-12T12:24:13.652Z,22.90
2017-07-12T12:26:41.961Z,22.50
2017-07-12T12:29:09.508Z,22.50
2017-07-12T12:31:37.022Z,22.20
2017-07-12T12:34:04.538Z,21.50
2017-07-12T12:36:32.099Z,21.20
2017-07-12T12:38:59.680Z,20.90
2017-07-12T12:41:27.189Z,20.90
2017-07-12T12:43:55.454Z,20.60
2017-07-12T12:46:23.000Z,20.60
2017-07-12T12:48:50.475Z,20.40
2017-07-12T12:51:18.027Z,20.10
2017-07-12T12:53:45.582Z,20.00
2017-07-12T12:56:13.078Z,19.90
2017-07-12T12:58:40.571Z,19.80
2017-07-12T13:01:08.080Z,19.70
2017-07-12T13:03:36.354Z,19.30
2017-07-12T13:06:04.638Z,19.30
2017-07-12T13:08:33.028Z,19.10
2017-07-12T13:11:00.866Z,19.10
2017-07-12T13:13:28.356Z,19.10
2017-07-12T13:15:55.903Z,19.30
2017-07-12T13:18:23.443Z,19.50
2017-07-12T13:20:51.050Z,19.40
2017-07-12T13:23:18.598Z,19.60
2017-07-12T13:25:46.183Z,19.70
2017-07-12T13:28:13.687Z,19.90
2017-07-12T13:30:41.304Z,19.70
2017-07-12T13:33:08.838Z,19.90
2017-07-12T13:35:36.322Z,19.90
2017-07-12T13:38:03.848Z,19.90
2017-07-12T13:40:32.117Z,20.00
2017-07-12T13:43:00.405Z,20.40
2017-07-12T13:45:27.938Z,20.40
2017-07-12T13:47:55.546Z,20.60
2017-07-12T13:50:23.033Z,20.60
2017-07-12T13:52:50.764Z,20.70
2017-07-12T13:55:18.278Z,20.80
2017-07-12T13:57:46.537Z,21.40
2017-07-12T14:00:14.080Z,21.40
2017-07-12T14:02:41.597Z,21.60
2017-07-12T14:05:09.100Z,21.60
2017-07-12T14:07:36.612Z,21.70
2017-07-12T14:10:05.021Z,21.60
2017-07-12T14:12:32.534Z,21.60
2017-07-12T14:15:00.834Z,21.80
2017-07-12T14:17:28.381Z,21.80
2017-07-12T14:19:56.712Z,22.50
2017-07-12T14:22:24.262Z,22.40
2017-07-12T14:24:51.813Z,22.70
2017-07-12T14:27:19.347Z,22.70
2017-07-12T14:29:47.640Z,22.20
2017-07-12T14:32:15.130Z,22.20
2017-07-12T14:34:42.725Z,21.70
2017-07-12T14:37:10.274Z,22.20
2017-07-12T14:39:37.786Z,22.90
2017-07-12T14:42:05.547Z,23.30
2017-07-12T14:44:33.075Z,23.80
2017-07-12T14:47:01.387Z,24.90
2017-07-12T14:49:28.893Z,24.90
2017-07-12T14:51:56.438Z,24.40
2017-07-12T14:54:23.932Z,24.80
2017-07-12T14:56:52.186Z,28.80
2017-07-12T14:59:20.082Z,28.70
2017-07-12T15:01:48.373Z,28.30
2017-07-12T15:04:15.865Z,28.30
2017-07-12T15:06:44.411Z,26.90
2017-07-12T15:09:11.911Z,27.10
2017-07-12T15:11:39.404Z,27.00
2017-07-12T15:14:06.934Z,26.90
2017-07-12T15:16:34.440Z,25.70
2017-07-12T15:19:02.127Z,25.40
2017-07-12T15:21:29.698Z,25.10
2017-07-12T15:23:57.214Z,24.50
2017-07-12T15:26:25.492Z,23.90
2017-07-12T15:28:53.835Z,23.70
2017-07-12T15:31:21.345Z,23.70
2017-07-12T15:33:48.835Z,23.60
2017-07-12T15:36:16.452Z,23.00
2017-07-12T15:38:44.727Z,22.80
2017-07-12T15:41:13.060Z,22.70
2017-07-12T15:43:40.595Z,22.70
2017-07-12T15:46:08.109Z,22.20
2017-07-12T15:48:36.360Z,22.00
2017-07-12T15:51:03.899Z,22.00
2017-07-12T15:53:31.456Z,21.40
2017-07-12T15:55:58.976Z,21.20
2017-07-12T15:58:27.271Z,20.70
2017-07-12T16:00:54.769Z,20.70
2017-07-12T16:03:22.294Z,20.60
2017-07-12T16:05:49.841Z,20.50
2017-07-12T16:08:17.374Z,20.20
2017-07-12T16:10:44.877Z,20.20
2017-07-12T16:13:12.413Z,20.20
2017-07-12T16:15:39.920Z,20.30
2017-07-12T16:18:07.527Z,20.70
2017-07-12T16:20:35.905Z,21.00
2017-07-12T16:23:04.250Z,20.90
2017-07-12T16:25:31.734Z,20.90
2017-07-12T16:27:59.280Z,20.80
2017-07-12T16:30:26.767Z,20.50
2017-07-12T16:32:55.036Z,22.20
2017-07-12T16:35:23.356Z,23.50
2017-07-12T16:37:50.894Z,23.50
2017-07-12T16:40:18.385Z,25.70
2017-07-12T16:42:45.971Z,26.60
2017-07-12T16:45:13.465Z,29.30
2017-07-12T16:47:40.979Z,27.90
2017-07-12T16:50:08.515Z,27.80
2017-07-12T16:52:36.780Z,30.00
2017-07-12T16:55:05.011Z,30.10
2017-07-12T16:57:32.528Z,30.50
2017-07-12T17:00:00.050Z,28.50
2017-07-12T17:02:27.554Z,26.60
2017-07-12T17:04:56.793Z,25.50
2017-07-12T17:07:25.054Z,28.60
2017-07-12T17:09:52.560Z,28.60
2017-07-12T17:12:20.423Z,27.90
2017-07-12T17:14:47.984Z,27.50
2017-07-12T17:17:15.840Z,26.80
2017-07-12T17:19:43.423Z,26.50
2017-07-12T17:22:10.919Z,25.90
2017-07-12T17:24:38.427Z,27.00
2017-07-12T17:27:06.028Z,23.50
2017-07-12T17:29:33.549Z,23.50
2017-07-12T17:32:01.034Z,22.60
2017-07-12T17:34:28.785Z,22.30
2017-07-12T17:36:56.860Z,21.90
2017-07-12T17:39:24.367Z,21.90
2017-07-12T17:41:53.197Z,21.70
2017-07-12T17:44:20.687Z,22.40
2017-07-12T17:46:48.185Z,24.60
2017-07-12T17:49:16.482Z,23.50
2017-07-12T17:51:44.064Z,23.50
2017-07-12T17:54:11.580Z,23.00
2017-07-12T17:56:40.082Z,21.60
2017-07-12T17:59:07.596Z,21.60
2017-07-12T18:01:35.094Z,21.50
2017-07-12T18:04:03.587Z,21.40
2017-07-12T18:06:31.160Z,21.40
2017-07-12T18:08:58.719Z,21.10
2017-07-12T18:11:26.242Z,20.90
2017-07-12T18:13:54.550Z,20.60
2017-07-12T18:16:22.066Z,20.60
2017-07-12T18:18:49.692Z,20.40
2017-07-12T18:21:17.306Z,20.40
2017-07-12T18:23:45.570Z,20.20
2017-07-12T18:26:13.088Z,20.20
2017-07-12T18:28:40.595Z,20.10
2017-07-12T18:31:08.879Z,20.20
2017-07-12T18:33:37.497Z,20.10
2017-07-12T18:36:05.014Z,20.10
2017-07-12T18:38:33.283Z,20.10
2017-07-12T18:41:00.825Z,20.10
2017-07-12T18:43:28.354Z,20.10
2017-07-12T18:45:56.159Z,20.00
2017-07-12T18:48:23.652Z,20.10
2017-07-12T18:50:51.950Z,20.10
2017-07-12T18:53:19.723Z,20.10
2017-07-12T18:55:47.277Z,20.10
2017-07-12T18:58:14.788Z,20.00
2017-07-12T19:00:42.309Z,20.00
2017-07-12T19:03:09.809Z,19.90
2017-07-12T19:05:38.059Z,19.80
2017-07-12T19:08:05.728Z,19.80
2017-07-12T19:10:33.224Z,19.70
2017-07-12T19:13:01.600Z,19.80
2017-07-12T19:15:29.915Z,19.80
2017-07-12T19:17:57.398Z,19.80
2017-07-12T19:20:24.886Z,19.70
2017-07-12T19:22:53.162Z,19.70
2017-07-12T19:25:21.457Z,19.70
2017-07-12T19:27:48.939Z,19.60
2017-07-12T19:30:16.455Z,19.70
2017-07-12T19:32:44.703Z,19.60
2017-07-12T19:35:12.192Z,19.60
2017-07-12T19:37:40.474Z,19.00
2017-07-12T19:40:08.721Z,18.80
2017-07-12T19:42:36.229Z,18.80
2017-07-12T19:45:03.736Z,18.70
2017-07-12T19:47:31.233Z,18.70
2017-07-12T19:49:59.518Z,18.40
2017-07-12T19:52:27.174Z,18.40
2017-07-12T19:54:55.478Z,17.70
2017-07-12T19:57:23.053Z,17.60
2017-07-12T19:59:51.492Z,17.50
2017-07-12T20:02:19.080Z,17.20
2017-07-12T20:04:46.579Z,17.00
2017-07-12T20:07:14.094Z,16.60
2017-07-12T20:09:41.595Z,16.20
2017-07-12T20:12:09.222Z,16.00
2017-07-12T20:14:36.759Z,15.50
2017-07-12T20:17:04.238Z,15.10
2017-07-12T20:19:31.738Z,14.90
2017-07-12T20:21:59.252Z,14.80
2017-07-12T20:24:26.791Z,14.70
2017-07-12T20:26:55.065Z,14.60
2017-07-12T20:29:22.731Z,14.60
2017-07-12T20:31:50.205Z,14.60
2017-07-12T20:34:17.707Z,14.60
2017-07-12T20:36:45.228Z,14.60
2017-07-12T20:39:12.723Z,14.60
2017-07-12T20:41:41.359Z,14.60
2017-07-12T20:44:08.895Z,14.70
2017-07-12T20:46:37.189Z,14.70
2017-07-12T20:49:04.681Z,14.70
2017-07-12T20:51:33.222Z,14.80
2017-07-12T20:54:00.736Z,14.90
2017-07-12T20:56:28.240Z,14.80
2017-07-12T20:58:55.835Z,14.80
2017-07-12T21:01:24.084Z,14.80
2017-07-12T21:03:51.647Z,14.80
2017-07-12T21:06:19.202Z,14.80
2017-07-12T21:08:46.751Z,14.70
2017-07-12T21:11:15.018Z,14.80
2017-07-12T21:13:43.300Z,14.70
2017-07-12T21:16:11.594Z,14.70
2017-07-12T21:18:39.081Z,14.60
2017-07-12T21:21:06.956Z,14.70
2017-07-12T21:23:34.478Z,14.70
2017-07-12T21:26:01.977Z,14.70
2017-07-12T21:28:29.520Z,14.70
2017-07-12T21:30:57.019Z,14.60
2017-07-12T21:33:24.522Z,14.70
2017-07-12T21:35:52.078Z,14.60
2017-07-12T21:38:19.626Z,14.60
2017-07-12T21:40:47.897Z,14.70
2017-07-12T21:43:16.203Z,14.70
2017-07-12T21:45:43.696Z,14.70
2017-07-12T21:48:11.192Z,14.80
2017-07-12T21:50:39.495Z,14.70
2017-07-12T21:53:24.835Z,14.70
2017-07-12T21:56:10.852Z,14.80
2017-07-12T21:58:56.317Z,14.70
2017-07-12T22:01:42.461Z,14.70
2017-07-12T22:04:27.597Z,14.70
2017-07-12T22:07:13.572Z,14.70
2017-07-12T22:09:59.522Z,14.70
2017-07-12T22:12:44.766Z,14.60
2017-07-12T22:15:29.855Z,14.60
2017-07-12T22:18:15.482Z,14.60
2017-07-12T22:21:00.554Z,14.70
2017-07-12T22:23:46.184Z,14.70
2017-07-12T22:26:31.406Z,14.70
2017-07-12T22:29:16.709Z,14.70
2017-07-12T22:32:02.640Z,14.70
2017-07-12T22:34:48.310Z,14.70
2017-07-12T22:37:21.419Z,14.70
2017-07-12T22:39:54.638Z,14.60
2017-07-12T22:42:27.804Z,14.60
2017-07-12T22:44:55.539Z,14.60
2017-07-12T22:47:23.087Z,14.60
2017-07-12T22:49:51.346Z,14.40
2017-07-12T22:52:18.881Z,14.40
2017-07-12T22:54:46.367Z,14.40
2017-07-12T22:57:14.638Z,14.50
2017-07-12T22:59:42.911Z,14.30
2017-07-12T23:02:10.417Z,14.30
2017-07-12T23:04:37.956Z,14.20
2017-07-12T23:07:05.517Z,14.10
2017-07-12T23:09:33.073Z,13.90
2017-07-12T23:12:00.557Z,13.90
2017-07-12T23:14:28.080Z,13.80
2017-07-12T23:16:56.341Z,13.70
2017-07-12T23:19:23.843Z,13.70
2017-07-12T23:21:51.352Z,13.70
2017-07-12T23:24:18.973Z,13.70
2017-07-12T23:26:46.529Z,13.60
2017-07-12T23:29:14.067Z,13.60
2017-07-12T23:31:41.624Z,13.60
2017-07-12T23:34:09.889Z,13.70
2017-07-12T23:36:38.162Z,13.60
2017-07-12T23:39:06.424Z,13.70
2017-07-12T23:41:34.030Z,13.60
2017-07-12T23:44:01.534Z,13.70
2017-07-12T23:46:29.063Z,13.70
2017-07-12T23:48:56.535Z,13.70
2017-07-12T23:51:24.177Z,13.70
2017-07-12T23:53:51.656Z,13.80
2017-07-12T23:56:19.169Z,13.70
2017-07-12T23:58:47.450Z,13.80
